Time;durP1;ratioP1;P1;durP2;ratioP2;P2;SDS_P1;SDS_P2;PMS_P1;PMS_P2;Temp;Humidity;BMP_temperature;BMP_pressure;BME280_temperature;BME280_humidity;BME280_pressure;Samples;Min_cycle;Max_cycle;Signal;HPM_P1;HPM_P2
2022/09/09 00:05:29;;;;;;;16.50;8.90;;;12.10;99.90;;;;;;20685486;28;20199;-51
2022/09/09 00:15:33;;;;;;;15.27;9.40;;;11.90;99.90;;;;;;20729344;28;20042;-48
2022/09/09 00:26:02;;;;;;;12.75;8.70;;;11.90;99.90;;;;;;20748096;28;20084;-59
2022/09/09 00:36:13;;;;;;;10.50;7.80;;;11.80;99.90;;;;;;20399088;28;20051;-51
2022/09/09 00:46:43;;;;;;;15.27;8.27;;;11.90;99.90;;;;;;20397385;29;20051;-50
2022/09/09 00:57:32;;;;;;;14.87;9.40;;;11.70;99.90;;;;;;20416616;28;20405;-48
2022/09/09 01:07:34;;;;;;;15.23;9.27;;;11.70;99.90;;;;;;20479064;28;20045;-51
2022/09/09 01:18:05;;;;;;;14.88;9.35;;;12.00;99.90;;;;;;20711155;28;20084;-58
2022/09/09 01:28:27;;;;;;;18.90;10.10;;;12.40;99.90;;;;;;20726691;28;20037;-48
2022/09/09 01:38:37;;;;;;;14.95;9.50;;;12.80;99.90;;;;;;20729373;28;20102;-50
2022/09/09 01:48:42;;;;;;;16.33;9.93;;;13.10;99.90;;;;;;20724079;28;20109;-58
2022/09/09 01:58:50;;;;;;;15.25;8.90;;;13.20;99.90;;;;;;20744545;28;20038;-58
2022/09/09 02:08:56;;;;;;;11.75;8.32;;;13.30;99.90;;;;;;20724268;28;20048;-57
2022/09/09 02:19:07;;;;;;;12.25;8.45;;;13.20;99.90;;;;;;20738725;28;20143;-48
2022/09/09 02:29:44;;;;;;;14.20;8.55;;;13.30;99.90;;;;;;20721498;28;20826;-52
2022/09/09 02:39:48;;;;;;;14.45;8.63;;;13.50;99.90;;;;;;20751559;28;20030;-59
2022/09/09 02:50:12;;;;;;;13.25;9.82;;;13.60;99.90;;;;;;20747109;28;20045;-57
2022/09/09 03:00:24;;;;;;;14.77;9.98;;;13.60;99.90;;;;;;20723447;28;20042;-49
2022/09/09 03:10:28;;;;;;;16.45;11.20;;;13.40;99.90;;;;;;20719713;28;20600;-50
2022/09/09 03:20:31;;;;;;;18.73;12.05;;;13.10;99.90;;;;;;20721283;28;20038;-59
2022/09/09 03:30:35;;;;;;;20.48;12.80;;;12.80;99.90;;;;;;20748236;28;20372;-57
2022/09/09 03:40:38;;;;;;;18.90;11.07;;;12.90;99.90;;;;;;20735382;28;20096;-48
2022/09/09 03:50:46;;;;;;;18.65;10.55;;;13.10;99.90;;;;;;20735482;28;20045;-47
2022/09/09 04:01:05;;;;;;;16.25;10.02;;;13.30;99.90;;;;;;20765461;28;20042;-49
2022/09/09 04:11:09;;;;;;;15.60;10.00;;;13.40;99.90;;;;;;20764207;28;20084;-57
2022/09/09 04:21:15;;;;;;;17.50;10.48;;;13.60;99.90;;;;;;20735507;28;20364;-58
2022/09/09 04:31:23;;;;;;;11.95;9.10;;;13.60;99.90;;;;;;20749078;28;20038;-50
2022/09/09 04:41:28;;;;;;;13.45;9.35;;;13.80;99.90;;;;;;20742312;28;20447;-57
2022/09/09 04:51:31;;;;;;;18.48;9.80;;;13.80;99.90;;;;;;20745256;28;20046;-58
2022/09/09 05:01:34;;;;;;;15.52;8.73;;;13.80;99.90;;;;;;20709281;28;20084;-57
2022/09/09 05:11:39;;;;;;;10.50;6.63;;;13.90;99.90;;;;;;20762924;28;20037;-57
2022/09/09 05:22:00;;;;;;;8.13;6.13;;;14.20;99.90;;;;;;20745574;28;20033;-58
2022/09/09 05:32:13;;;;;;;6.32;5.25;;;14.50;99.90;;;;;;20743631;28;20108;-49
2022/09/09 05:42:16;;;;;;;7.43;5.03;;;14.80;99.90;;;;;;20745444;28;20084;-51
2022/09/09 05:52:20;;;;;;;6.05;4.35;;;15.50;99.90;;;;;;20745278;28;20159;-58
2022/09/09 06:02:23;;;;;;;4.78;3.55;;;16.20;99.90;;;;;;20712619;28;20049;-51
2022/09/09 06:12:26;;;;;;;4.25;3.20;;;16.80;99.90;;;;;;20722957;28;20038;-50
2022/09/09 06:22:28;;;;;;;6.32;2.88;;;17.20;99.90;;;;;;20746817;28;20029;-51
2022/09/09 06:32:34;;;;;;;3.25;2.15;;;17.60;99.90;;;;;;20750479;28;20038;-59
2022/09/09 06:42:38;;;;;;;5.43;2.15;;;18.10;99.90;;;;;;20738490;28;20046;-59
2022/09/09 06:52:57;;;;;;;;;;;19.40;99.90;;;;;;20724660;28;20192;-47
2022/09/09 07:02:59;;;;;;;5.32;1.90;;;20.10;99.90;;;;;;20735942;28;19980;-58
2022/09/09 07:13:04;;;;;;;4.78;2.33;;;20.20;99.90;;;;;;20721996;28;20502;-51
2022/09/09 07:23:07;;;;;;;3.90;1.92;;;20.40;99.90;;;;;;20725973;28;20092;-51
2022/09/09 07:33:10;;;;;;;5.53;1.80;;;21.00;99.90;;;;;;20745262;28;20068;-59
2022/09/09 07:43:14;;;;;;;3.22;1.77;;;21.30;99.90;;;;;;20736094;28;20120;-49
2022/09/09 07:53:16;;;;;;;5.78;1.58;;;20.70;99.90;;;;;;20753394;28;20110;-59
2022/09/09 08:03:19;;;;;;;3.92;1.55;;;20.30;99.90;;;;;;20716643;28;20112;-59
2022/09/09 08:13:23;;;;;;;2.83;1.40;;;19.90;99.90;;;;;;20748178;28;20424;-59
2022/09/09 08:23:25;;;;;;;2.88;1.42;;;18.80;99.90;;;;;;20754330;28;20046;-59
2022/09/09 08:33:28;;;;;;;4.05;1.85;;;17.90;99.90;;;;;;20754011;28;20034;-47
2022/09/09 08:43:33;;;;;;;8.32;2.20;;;17.40;99.90;;;;;;20762560;28;20037;-48
2022/09/09 08:53:49;;;;;;;4.25;2.40;;;17.30;99.90;;;;;;20769350;28;20045;-58
2022/09/09 09:04:01;;;;;;;3.70;1.70;;;18.60;99.90;;;;;;20717916;28;20134;-59
2022/09/09 09:14:18;;;;;;;4.15;1.48;;;20.70;99.90;;;;;;20729110;28;20105;-51
2022/09/09 09:24:37;;;;;;;4.55;1.40;;;20.80;99.90;;;;;;20744305;28;20088;-52
2022/09/09 09:34:40;;;;;;;4.55;2.47;;;20.20;99.90;;;;;;20761823;28;20046;-48
2022/09/09 09:44:44;;;;;;;6.25;4.57;;;19.60;99.90;;;;;;20738611;28;20088;-58
2022/09/09 09:54:56;;;;;;;7.35;4.72;;;18.60;99.90;;;;;;20769130;28;20049;-49
2022/09/09 10:05:25;;;;;;;5.68;3.83;;;17.40;99.90;;;;;;20723660;28;20069;-49
2022/09/09 10:15:29;;;;;;;5.78;3.88;;;17.40;99.90;;;;;;20725045;28;20089;-48
2022/09/09 10:26:00;;;;;;;9.25;4.20;;;17.70;99.90;;;;;;20737677;28;20029;-48
2022/09/09 10:36:13;;;;;;;7.82;6.30;;;17.40;99.90;;;;;;20758997;28;20034;-48
2022/09/09 10:46:51;;;;;;;6.07;3.85;;;17.20;99.90;;;;;;20740316;28;20499;-50
2022/09/09 10:57:23;;;;;;;4.05;2.78;;;17.20;99.90;;;;;;20736124;28;20379;-50
2022/09/09 11:07:56;;;;;;;6.28;2.80;;;17.30;99.90;;;;;;20714379;28;20046;-47
2022/09/09 11:18:02;;;;;;;5.15;2.13;;;17.20;99.90;;;;;;20734296;28;20181;-51
2022/09/09 11:28:28;;;;;;;1.85;1.35;;;17.30;99.90;;;;;;20718920;28;20041;-58
2022/09/09 11:38:47;;;;;;;1.83;1.33;;;17.90;99.90;;;;;;20725002;28;20112;-49
2022/09/09 11:49:06;;;;;;;1.70;0.93;;;18.50;99.90;;;;;;20745390;28;20371;-46
2022/09/09 11:59:18;;;;;;;3.30;0.80;;;18.80;99.90;;;;;;20734738;28;20026;-52
2022/09/09 12:09:30;;;;;;;1.38;1.20;;;18.80;99.90;;;;;;20795039;28;20096;-51
2022/09/09 12:19:33;;;;;;;2.08;0.77;;;18.70;99.90;;;;;;20772777;28;20462;-52
2022/09/09 12:29:53;;;;;;;4.22;1.40;;;18.60;99.90;;;;;;20748707;28;20038;-51
2022/09/09 12:40:03;;;;;;;1.33;0.90;;;20.20;99.90;;;;;;20757437;28;20382;-51
2022/09/09 12:50:17;;;;;;;1.40;0.70;;;21.20;99.90;;;;;;20730313;28;20066;-52
2022/09/09 13:00:24;;;;;;;3.63;0.75;;;20.60;99.90;;;;;;20727911;28;20042;-51
2022/09/09 13:10:30;;;;;;;1.90;0.85;;;21.40;99.90;;;;;;20724766;28;20093;-50
2022/09/09 13:20:33;;;;;;;1.50;0.93;;;22.30;99.90;;;;;;20725963;28;20042;-52
2022/09/09 13:30:40;;;;;;;3.33;0.90;;;22.50;99.90;;;;;;20746943;28;20056;-51
2022/09/09 13:41:04;;;;;;;1.45;0.70;;;22.50;99.90;;;;;;20749760;28;20026;-60
2022/09/09 13:51:30;;;;;;;1.63;0.70;;;22.10;99.90;;;;;;20746812;28;20050;-48
2022/09/09 14:01:34;;;;;;;1.95;0.70;;;22.50;99.90;;;;;;20748373;28;20108;-52
2022/09/09 14:11:37;;;;;;;1.95;0.63;;;22.40;99.90;;;;;;20728701;28;20116;-47
2022/09/09 14:21:39;;;;;;;1.33;0.70;;;22.60;99.90;;;;;;20722121;28;20068;-59
2022/09/09 14:31:42;;;;;;;1.80;0.75;;;22.50;99.90;;;;;;20728390;28;20033;-52
2022/09/09 14:41:45;;;;;;;1.33;0.70;;;22.10;99.90;;;;;;20749639;28;20088;-60
2022/09/09 14:51:48;;;;;;;1.35;0.70;;;21.60;99.90;;;;;;20723782;28;20045;-58
2022/09/09 15:01:51;;;;;;;3.90;1.00;;;21.10;99.90;;;;;;20740245;28;20046;-59
2022/09/09 15:11:53;;;;;;;1.73;0.70;;;20.20;99.90;;;;;;20740604;28;20652;-59
2022/09/09 15:21:56;;;;;;;1.38;1.10;;;19.40;99.90;;;;;;20735435;28;20042;-47
2022/09/09 15:31:58;;;;;;;1.83;1.20;;;18.50;99.90;;;;;;20733029;28;20038;-59
2022/09/09 15:42:01;;;;;;;1.90;1.30;;;17.80;99.90;;;;;;20724301;28;20093;-57
2022/09/09 15:52:05;;;;;;;2.78;1.52;;;17.40;99.90;;;;;;20737394;28;20041;-58
2022/09/09 16:02:09;;;;;;;2.88;1.83;;;17.30;99.90;;;;;;20747909;28;20557;-47
2022/09/09 16:12:12;;;;;;;4.03;2.05;;;16.70;99.90;;;;;;20749316;28;20042;-50
2022/09/09 16:22:15;;;;;;;3.08;2.33;;;16.00;99.90;;;;;;20747539;28;20069;-58
2022/09/09 16:32:17;;;;;;;5.20;2.55;;;15.20;99.90;;;;;;20731369;28;20049;-58
2022/09/09 16:42:20;;;;;;;6.32;2.50;;;14.80;99.90;;;;;;20744225;28;20486;-52
2022/09/09 16:52:23;;;;;;;6.40;2.70;;;14.40;99.90;;;;;;20742228;28;20407;-52
2022/09/09 17:02:25;;;;;;;6.45;2.50;;;13.90;99.90;;;;;;20746552;28;20116;-49
2022/09/09 17:12:30;;;;;;;7.45;4.13;;;13.70;99.90;;;;;;20743991;28;20058;-50
2022/09/09 17:22:33;;;;;;;6.50;4.70;;;13.50;99.90;;;;;;20726505;28;20026;-51
2022/09/09 17:32:36;;;;;;;5.28;3.20;;;13.40;99.90;;;;;;20734182;28;20037;-48
2022/09/09 17:42:40;;;;;;;9.07;4.03;;;13.20;99.90;;;;;;20737358;28;20034;-57
2022/09/09 17:52:42;;;;;;;5.32;3.95;;;12.80;99.90;;;;;;20763952;28;20461;-57
2022/09/09 18:02:47;;;;;;;7.00;3.50;;;13.20;99.90;;;;;;20758856;28;20183;-57
2022/09/09 18:12:49;;;;;;;5.30;2.45;;;13.20;99.90;;;;;;20743195;28;20035;-57
2022/09/09 18:22:52;;;;;;;4.03;2.63;;;12.80;99.90;;;;;;20738076;28;20487;-51
2022/09/09 18:32:54;;;;;;;8.90;4.72;;;12.40;99.90;;;;;;20754551;28;20033;-59
2022/09/09 18:42:57;;;;;;;7.28;4.70;;;12.60;99.90;;;;;;20737482;28;20034;-59
2022/09/09 18:52:59;;;;;;;12.00;5.78;;;12.70;99.90;;;;;;20721113;28;20450;-52
2022/09/09 19:03:02;;;;;;;11.60;5.68;;;12.60;99.90;;;;;;20728108;28;20049;-59
2022/09/09 19:13:05;;;;;;;15.88;9.50;;;12.50;99.90;;;;;;20736692;28;20038;-57
2022/09/09 19:23:08;;;;;;;12.57;8.65;;;12.50;99.90;;;;;;20741109;28;20084;-51
2022/09/09 19:33:11;;;;;;;13.82;10.50;;;12.50;99.90;;;;;;20730502;28;20046;-58
2022/09/09 19:43:13;;;;;;;16.00;10.65;;;12.20;99.90;;;;;;20718482;28;20033;-60
2022/09/09 19:53:16;;;;;;;16.92;10.73;;;12.00;99.90;;;;;;20734218;28;20459;-59
2022/09/09 20:03:20;;;;;;;12.60;9.13;;;11.90;99.90;;;;;;20723103;28;20029;-48
2022/09/09 20:13:26;;;;;;;14.20;8.68;;;11.80;99.90;;;;;;20734070;28;20116;-59
2022/09/09 20:23:29;;;;;;;15.50;9.60;;;11.60;99.90;;;;;;20724522;28;20041;-51
2022/09/09 20:33:34;;;;;;;12.90;9.07;;;11.70;99.90;;;;;;20732098;28;20041;-51
2022/09/09 20:43:37;;;;;;;12.93;9.93;;;11.60;99.90;;;;;;20729881;28;20030;-59
2022/09/09 20:53:39;;;;;;;13.73;8.93;;;11.70;99.90;;;;;;20749572;28;20049;-59
2022/09/09 21:03:43;;;;;;;11.52;8.95;;;11.80;99.90;;;;;;20747309;28;20034;-49
2022/09/09 21:13:46;;;;;;;14.27;8.48;;;12.00;99.90;;;;;;20751926;28;20096;-51
2022/09/09 21:23:52;;;;;;;10.02;7.85;;;12.10;99.90;;;;;;20745184;28;20057;-57
2022/09/09 21:33:57;;;;;;;12.88;8.63;;;12.20;99.90;;;;;;20734660;28;20038;-46
2022/09/09 21:43:59;;;;;;;10.25;7.97;;;12.20;99.90;;;;;;20724577;28;20544;-56
2022/09/09 21:54:01;;;;;;;5.43;3.88;;;12.30;99.90;;;;;;20744434;28;20121;-50
2022/09/09 22:04:05;;;;;;;5.32;3.13;;;12.30;99.90;;;;;;20743606;28;20063;-57
2022/09/09 22:14:09;;;;;;;3.75;1.40;;;12.10;99.90;;;;;;20744140;28;20065;-52
2022/09/09 22:24:11;;;;;;;1.55;0.60;;;12.10;99.90;;;;;;20721991;28;20033;-50
2022/09/09 22:34:13;;;;;;;1.75;0.65;;;12.20;99.90;;;;;;20750360;28;20042;-50
2022/09/09 22:44:16;;;;;;;0.65;0.55;;;12.30;99.90;;;;;;20728640;28;20089;-58
2022/09/09 22:54:22;;;;;;;2.08;0.70;;;12.40;99.90;;;;;;20721903;28;20053;-57
2022/09/09 23:04:26;;;;;;;1.33;0.38;;;12.50;99.90;;;;;;20751874;28;20065;-57
2022/09/09 23:14:30;;;;;;;0.52;0.20;;;12.50;99.90;;;;;;20740788;28;20536;-56
2022/09/09 23:24:33;;;;;;;1.05;0.30;;;12.60;99.90;;;;;;20731576;28;20379;-50
2022/09/09 23:34:36;;;;;;;2.38;0.40;;;12.50;99.90;;;;;;20751299;28;20033;-47
2022/09/09 23:44:39;;;;;;;0.25;0.25;;;12.40;99.90;;;;;;20734742;28;20399;-57
2022/09/09 23:54:42;;;;;;;0.52;0.10;;;12.10;99.90;;;;;;20738145;28;20046;-47
